sensor_id;sensor_type;location;lat;lon;timestamp;P1;durP1;ratioP1;P2;durP2;ratioP2
24751;SDS011;27246;52.376;4.628;2022-10-16T00:06:05;4.97;;;1.45;;
24751;SDS011;27246;52.376;4.628;2022-10-16T00:11:08;2.17;;;1.17;;
24751;SDS011;27246;52.376;4.628;2022-10-16T00:16:15;4.60;;;1.17;;
24751;SDS011;27246;52.376;4.628;2022-10-16T00:21:19;2.38;;;0.90;;
24751;SDS011;27246;52.376;4.628;2022-10-16T00:26:22;1.83;;;0.77;;
24751;SDS011;27246;52.376;4.628;2022-10-16T00:31:24;2.70;;;0.90;;
24751;SDS011;27246;52.376;4.628;2022-10-16T00:36:27;3.50;;;1.00;;
24751;SDS011;27246;52.376;4.628;2022-10-16T00:41:29;3.20;;;0.95;;
24751;SDS011;27246;52.376;4.628;2022-10-16T00:46:35;1.92;;;1.05;;
24751;SDS011;27246;52.376;4.628;2022-10-16T00:56:46;2.83;;;0.82;;
24751;SDS011;27246;52.376;4.628;2022-10-16T01:01:48;2.03;;;0.90;;
24751;SDS011;27246;52.376;4.628;2022-10-16T01:07:01;1.83;;;0.88;;
24751;SDS011;27246;52.376;4.628;2022-10-16T01:17:56;2.45;;;1.17;;
24751;SDS011;27246;52.376;4.628;2022-10-16T01:28:56;3.83;;;1.20;;
24751;SDS011;27246;52.376;4.628;2022-10-16T01:34:03;1.98;;;0.80;;
24751;SDS011;27246;52.376;4.628;2022-10-16T01:39:11;1.17;;;0.70;;
24751;SDS011;27246;52.376;4.628;2022-10-16T01:44:22;6.80;;;1.38;;
24751;SDS011;27246;52.376;4.628;2022-10-16T01:49:31;2.30;;;0.50;;
24751;SDS011;27246;52.376;4.628;2022-10-16T01:54:35;2.72;;;0.63;;
24751;SDS011;27246;52.376;4.628;2022-10-16T01:59:45;2.88;;;0.60;;
24751;SDS011;27246;52.376;4.628;2022-10-16T02:04:53;1.05;;;0.80;;
24751;SDS011;27246;52.376;4.628;2022-10-16T02:10:05;2.15;;;0.85;;
24751;SDS011;27246;52.376;4.628;2022-10-16T02:15:07;4.10;;;0.85;;
24751;SDS011;27246;52.376;4.628;2022-10-16T02:20:09;2.85;;;1.20;;
24751;SDS011;27246;52.376;4.628;2022-10-16T02:25:15;2.55;;;0.70;;
24751;SDS011;27246;52.376;4.628;2022-10-16T02:30:23;1.80;;;1.10;;
24751;SDS011;27246;52.376;4.628;2022-10-16T02:35:42;3.97;;;1.40;;
24751;SDS011;27246;52.376;4.628;2022-10-16T02:40:47;3.30;;;0.90;;
24751;SDS011;27246;52.376;4.628;2022-10-16T02:45:49;1.67;;;0.85;;
24751;SDS011;27246;52.376;4.628;2022-10-16T02:50:51;4.00;;;1.00;;
24751;SDS011;27246;52.376;4.628;2022-10-16T02:55:53;1.77;;;0.88;;
24751;SDS011;27246;52.376;4.628;2022-10-16T03:00:54;2.72;;;1.05;;
24751;SDS011;27246;52.376;4.628;2022-10-16T03:05:57;3.42;;;0.90;;
24751;SDS011;27246;52.376;4.628;2022-10-16T03:10:58;1.08;;;0.70;;
24751;SDS011;27246;52.376;4.628;2022-10-16T03:16:02;3.95;;;1.13;;
24751;SDS011;27246;52.376;4.628;2022-10-16T03:21:04;1.52;;;1.30;;
24751;SDS011;27246;52.376;4.628;2022-10-16T03:26:05;3.55;;;1.33;;
24751;SDS011;27246;52.376;4.628;2022-10-16T03:31:07;2.92;;;1.15;;
24751;SDS011;27246;52.376;4.628;2022-10-16T03:36:09;2.42;;;1.33;;
24751;SDS011;27246;52.376;4.628;2022-10-16T03:41:11;2.85;;;1.27;;
24751;SDS011;27246;52.376;4.628;2022-10-16T03:46:12;2.35;;;1.20;;
24751;SDS011;27246;52.376;4.628;2022-10-16T03:51:14;2.83;;;1.65;;
24751;SDS011;27246;52.376;4.628;2022-10-16T03:56:16;3.60;;;1.20;;
24751;SDS011;27246;52.376;4.628;2022-10-16T04:01:18;2.17;;;0.88;;
24751;SDS011;27246;52.376;4.628;2022-10-16T04:06:20;5.10;;;1.30;;
24751;SDS011;27246;52.376;4.628;2022-10-16T04:11:22;5.43;;;1.17;;
24751;SDS011;27246;52.376;4.628;2022-10-16T04:16:24;2.92;;;0.98;;
24751;SDS011;27246;52.376;4.628;2022-10-16T04:21:26;3.10;;;1.20;;
24751;SDS011;27246;52.376;4.628;2022-10-16T04:26:27;2.28;;;1.23;;
24751;SDS011;27246;52.376;4.628;2022-10-16T04:31:29;3.63;;;1.13;;
24751;SDS011;27246;52.376;4.628;2022-10-16T04:36:31;4.95;;;1.35;;
24751;SDS011;27246;52.376;4.628;2022-10-16T04:41:32;2.95;;;1.02;;
24751;SDS011;27246;52.376;4.628;2022-10-16T04:46:34;6.57;;;1.05;;
24751;SDS011;27246;52.376;4.628;2022-10-16T04:51:36;3.95;;;0.98;;
24751;SDS011;27246;52.376;4.628;2022-10-16T04:56:37;12.75;;;1.83;;
24751;SDS011;27246;52.376;4.628;2022-10-16T05:06:49;3.38;;;1.05;;
24751;SDS011;27246;52.376;4.628;2022-10-16T05:11:51;5.30;;;0.95;;
24751;SDS011;27246;52.376;4.628;2022-10-16T05:16:52;2.90;;;0.90;;
24751;SDS011;27246;52.376;4.628;2022-10-16T05:21:54;4.35;;;1.00;;
24751;SDS011;27246;52.376;4.628;2022-10-16T05:26:55;3.30;;;0.95;;
24751;SDS011;27246;52.376;4.628;2022-10-16T05:31:57;3.72;;;1.05;;
24751;SDS011;27246;52.376;4.628;2022-10-16T05:36:59;2.13;;;1.40;;
24751;SDS011;27246;52.376;4.628;2022-10-16T05:42:01;2.72;;;1.00;;
24751;SDS011;27246;52.376;4.628;2022-10-16T05:47:02;2.97;;;1.10;;
24751;SDS011;27246;52.376;4.628;2022-10-16T05:52:04;3.35;;;1.60;;
24751;SDS011;27246;52.376;4.628;2022-10-16T05:57:06;4.15;;;1.50;;
24751;SDS011;27246;52.376;4.628;2022-10-16T06:02:08;3.35;;;1.02;;
24751;SDS011;27246;52.376;4.628;2022-10-16T06:07:14;3.53;;;1.00;;
24751;SDS011;27246;52.376;4.628;2022-10-16T06:12:16;4.03;;;1.52;;
24751;SDS011;27246;52.376;4.628;2022-10-16T06:17:17;3.78;;;0.98;;
24751;SDS011;27246;52.376;4.628;2022-10-16T06:22:19;2.78;;;1.13;;
24751;SDS011;27246;52.376;4.628;2022-10-16T06:27:21;3.13;;;1.10;;
24751;SDS011;27246;52.376;4.628;2022-10-16T06:32:25;2.78;;;1.17;;
24751;SDS011;27246;52.376;4.628;2022-10-16T06:37:26;3.80;;;1.30;;
24751;SDS011;27246;52.376;4.628;2022-10-16T06:42:29;4.28;;;1.33;;
24751;SDS011;27246;52.376;4.628;2022-10-16T06:47:30;3.25;;;1.38;;
24751;SDS011;27246;52.376;4.628;2022-10-16T06:52:32;3.13;;;1.00;;
24751;SDS011;27246;52.376;4.628;2022-10-16T06:57:34;5.22;;;1.30;;
24751;SDS011;27246;52.376;4.628;2022-10-16T07:02:36;2.13;;;0.82;;
24751;SDS011;27246;52.376;4.628;2022-10-16T07:07:38;3.22;;;1.48;;
24751;SDS011;27246;52.376;4.628;2022-10-16T07:12:40;5.00;;;1.30;;
24751;SDS011;27246;52.376;4.628;2022-10-16T07:17:42;4.60;;;1.20;;
24751;SDS011;27246;52.376;4.628;2022-10-16T07:22:43;10.23;;;1.98;;
24751;SDS011;27246;52.376;4.628;2022-10-16T07:27:45;7.28;;;2.45;;
24751;SDS011;27246;52.376;4.628;2022-10-16T07:32:47;2.65;;;1.20;;
24751;SDS011;27246;52.376;4.628;2022-10-16T07:37:49;7.40;;;1.85;;
24751;SDS011;27246;52.376;4.628;2022-10-16T07:42:51;4.95;;;1.35;;
24751;SDS011;27246;52.376;4.628;2022-10-16T07:47:52;9.02;;;1.33;;
24751;SDS011;27246;52.376;4.628;2022-10-16T07:52:54;5.00;;;1.63;;
24751;SDS011;27246;52.376;4.628;2022-10-16T07:57:56;8.18;;;2.00;;
24751;SDS011;27246;52.376;4.628;2022-10-16T08:02:57;8.38;;;1.45;;
24751;SDS011;27246;52.376;4.628;2022-10-16T08:08:02;5.28;;;1.67;;
24751;SDS011;27246;52.376;4.628;2022-10-16T08:13:04;10.75;;;2.30;;
24751;SDS011;27246;52.376;4.628;2022-10-16T08:18:05;5.80;;;1.63;;
24751;SDS011;27246;52.376;4.628;2022-10-16T08:23:08;10.85;;;2.50;;
24751;SDS011;27246;52.376;4.628;2022-10-16T08:28:12;8.88;;;2.03;;
24751;SDS011;27246;52.376;4.628;2022-10-16T08:33:14;11.85;;;3.20;;
24751;SDS011;27246;52.376;4.628;2022-10-16T08:38:16;9.13;;;1.85;;
24751;SDS011;27246;52.376;4.628;2022-10-16T08:53:52;10.52;;;2.08;;
24751;SDS011;27246;52.376;4.628;2022-10-16T08:58:57;15.38;;;2.25;;
24751;SDS011;27246;52.376;4.628;2022-10-16T09:10:04;14.82;;;2.38;;
24751;SDS011;27246;52.376;4.628;2022-10-16T09:15:28;9.02;;;1.73;;
24751;SDS011;27246;52.376;4.628;2022-10-16T09:25:48;8.50;;;1.83;;
24751;SDS011;27246;52.376;4.628;2022-10-16T09:30:52;11.25;;;3.00;;
24751;SDS011;27246;52.376;4.628;2022-10-16T09:35:55;10.55;;;2.17;;
24751;SDS011;27246;52.376;4.628;2022-10-16T09:41:00;8.70;;;2.13;;
24751;SDS011;27246;52.376;4.628;2022-10-16T09:46:08;6.40;;;1.60;;
24751;SDS011;27246;52.376;4.628;2022-10-16T09:56:29;5.40;;;2.30;;
24751;SDS011;27246;52.376;4.628;2022-10-16T10:01:37;8.30;;;1.60;;
24751;SDS011;27246;52.376;4.628;2022-10-16T10:06:48;8.20;;;2.15;;
24751;SDS011;27246;52.376;4.628;2022-10-16T10:11:56;11.15;;;1.80;;
24751;SDS011;27246;52.376;4.628;2022-10-16T10:22:53;8.63;;;2.45;;
24751;SDS011;27246;52.376;4.628;2022-10-16T10:33:27;10.77;;;1.80;;
24751;SDS011;27246;52.376;4.628;2022-10-16T11:00:47;8.25;;;2.35;;
24751;SDS011;27246;52.376;4.628;2022-10-16T11:06:00;7.90;;;1.75;;
24751;SDS011;27246;52.376;4.628;2022-10-16T11:11:18;11.52;;;1.80;;
24751;SDS011;27246;52.376;4.628;2022-10-16T11:16:30;6.40;;;1.45;;
24751;SDS011;27246;52.376;4.628;2022-10-16T11:21:39;9.50;;;2.17;;
24751;SDS011;27246;52.376;4.628;2022-10-16T11:26:51;5.65;;;1.70;;
24751;SDS011;27246;52.376;4.628;2022-10-16T11:31:59;8.43;;;1.80;;
24751;SDS011;27246;52.376;4.628;2022-10-16T11:37:14;7.65;;;2.10;;
24751;SDS011;27246;52.376;4.628;2022-10-16T11:42:40;10.75;;;1.70;;
24751;SDS011;27246;52.376;4.628;2022-10-16T11:47:51;8.45;;;1.13;;
24751;SDS011;27246;52.376;4.628;2022-10-16T12:03:29;6.95;;;1.60;;
24751;SDS011;27246;52.376;4.628;2022-10-16T12:08:39;9.13;;;1.67;;
24751;SDS011;27246;52.376;4.628;2022-10-16T12:13:42;6.95;;;1.98;;
24751;SDS011;27246;52.376;4.628;2022-10-16T12:18:44;9.07;;;1.52;;
24751;SDS011;27246;52.376;4.628;2022-10-16T12:23:52;7.53;;;1.45;;
24751;SDS011;27246;52.376;4.628;2022-10-16T12:29:12;6.55;;;1.50;;
24751;SDS011;27246;52.376;4.628;2022-10-16T12:34:32;5.18;;;1.80;;
24751;SDS011;27246;52.376;4.628;2022-10-16T12:39:39;8.63;;;1.83;;
24751;SDS011;27246;52.376;4.628;2022-10-16T12:44:41;9.20;;;1.92;;
24751;SDS011;27246;52.376;4.628;2022-10-16T12:49:49;9.35;;;1.67;;
24751;SDS011;27246;52.376;4.628;2022-10-16T12:54:58;10.73;;;1.67;;
24751;SDS011;27246;52.376;4.628;2022-10-16T13:11:17;5.43;;;1.43;;
24751;SDS011;27246;52.376;4.628;2022-10-16T13:32:30;8.45;;;1.80;;
24751;SDS011;27246;52.376;4.628;2022-10-16T13:37:32;8.45;;;2.17;;
24751;SDS011;27246;52.376;4.628;2022-10-16T13:42:33;8.40;;;1.90;;
24751;SDS011;27246;52.376;4.628;2022-10-16T13:47:37;9.63;;;1.90;;
24751;SDS011;27246;52.376;4.628;2022-10-16T13:52:39;4.95;;;1.38;;
24751;SDS011;27246;52.376;4.628;2022-10-16T13:57:41;6.53;;;1.52;;
24751;SDS011;27246;52.376;4.628;2022-10-16T14:02:43;12.40;;;1.73;;
24751;SDS011;27246;52.376;4.628;2022-10-16T14:07:47;10.50;;;1.60;;
24751;SDS011;27246;52.376;4.628;2022-10-16T14:12:59;6.13;;;1.75;;
24751;SDS011;27246;52.376;4.628;2022-10-16T14:18:04;7.43;;;1.60;;
24751;SDS011;27246;52.376;4.628;2022-10-16T14:23:19;9.02;;;1.70;;
24751;SDS011;27246;52.376;4.628;2022-10-16T14:28:29;6.82;;;1.38;;
24751;SDS011;27246;52.376;4.628;2022-10-16T14:33:33;6.80;;;2.13;;
24751;SDS011;27246;52.376;4.628;2022-10-16T14:38:35;6.82;;;1.90;;
24751;SDS011;27246;52.376;4.628;2022-10-16T14:43:40;8.07;;;2.33;;
24751;SDS011;27246;52.376;4.628;2022-10-16T14:48:44;7.72;;;1.63;;
24751;SDS011;27246;52.376;4.628;2022-10-16T14:53:49;9.20;;;2.55;;
24751;SDS011;27246;52.376;4.628;2022-10-16T14:58:51;7.07;;;1.52;;
24751;SDS011;27246;52.376;4.628;2022-10-16T15:03:54;11.45;;;1.90;;
24751;SDS011;27246;52.376;4.628;2022-10-16T15:08:56;13.38;;;2.33;;
24751;SDS011;27246;52.376;4.628;2022-10-16T15:13:58;9.80;;;2.40;;
24751;SDS011;27246;52.376;4.628;2022-10-16T15:19:00;8.10;;;1.60;;
24751;SDS011;27246;52.376;4.628;2022-10-16T15:24:01;9.07;;;2.10;;
24751;SDS011;27246;52.376;4.628;2022-10-16T15:29:03;8.40;;;1.60;;
24751;SDS011;27246;52.376;4.628;2022-10-16T15:34:06;10.38;;;1.92;;
24751;SDS011;27246;52.376;4.628;2022-10-16T15:39:14;8.15;;;2.10;;
24751;SDS011;27246;52.376;4.628;2022-10-16T15:44:17;8.20;;;1.73;;
24751;SDS011;27246;52.376;4.628;2022-10-16T15:49:19;11.00;;;2.33;;
24751;SDS011;27246;52.376;4.628;2022-10-16T15:54:21;10.10;;;2.63;;
24751;SDS011;27246;52.376;4.628;2022-10-16T15:59:24;33.33;;;6.18;;
24751;SDS011;27246;52.376;4.628;2022-10-16T16:04:25;16.02;;;4.10;;
24751;SDS011;27246;52.376;4.628;2022-10-16T16:09:45;15.25;;;4.68;;
24751;SDS011;27246;52.376;4.628;2022-10-16T16:14:47;19.38;;;5.60;;
24751;SDS011;27246;52.376;4.628;2022-10-16T16:19:50;16.10;;;4.63;;
24751;SDS011;27246;52.376;4.628;2022-10-16T16:24:52;12.07;;;4.57;;
24751;SDS011;27246;52.376;4.628;2022-10-16T16:29:54;13.23;;;5.45;;
24751;SDS011;27246;52.376;4.628;2022-10-16T16:34:56;12.93;;;4.47;;
24751;SDS011;27246;52.376;4.628;2022-10-16T16:39:58;13.90;;;6.38;;
24751;SDS011;27246;52.376;4.628;2022-10-16T16:44:59;20.58;;;7.60;;
24751;SDS011;27246;52.376;4.628;2022-10-16T16:50:02;25.02;;;8.63;;
24751;SDS011;27246;52.376;4.628;2022-10-16T16:55:13;17.08;;;6.65;;
24751;SDS011;27246;52.376;4.628;2022-10-16T17:00:15;20.60;;;7.30;;
24751;SDS011;27246;52.376;4.628;2022-10-16T17:05:17;16.02;;;7.25;;
24751;SDS011;27246;52.376;4.628;2022-10-16T17:10:19;15.23;;;7.00;;
24751;SDS011;27246;52.376;4.628;2022-10-16T17:15:21;16.98;;;6.82;;
24751;SDS011;27246;52.376;4.628;2022-10-16T17:20:23;18.15;;;6.57;;
24751;SDS011;27246;52.376;4.628;2022-10-16T17:25:25;16.73;;;6.80;;
24751;SDS011;27246;52.376;4.628;2022-10-16T17:30:29;23.08;;;7.63;;
24751;SDS011;27246;52.376;4.628;2022-10-16T17:35:42;17.85;;;7.05;;
24751;SDS011;27246;52.376;4.628;2022-10-16T17:40:49;17.45;;;7.72;;
24751;SDS011;27246;52.376;4.628;2022-10-16T17:45:51;18.20;;;7.35;;
24751;SDS011;27246;52.376;4.628;2022-10-16T17:50:53;10.27;;;6.25;;
24751;SDS011;27246;52.376;4.628;2022-10-16T17:55:54;15.68;;;6.90;;
24751;SDS011;27246;52.376;4.628;2022-10-16T18:01:12;14.63;;;7.28;;
24751;SDS011;27246;52.376;4.628;2022-10-16T18:06:15;17.38;;;6.60;;
24751;SDS011;27246;52.376;4.628;2022-10-16T18:11:24;20.88;;;6.35;;
24751;SDS011;27246;52.376;4.628;2022-10-16T18:16:26;23.38;;;7.22;;
24751;SDS011;27246;52.376;4.628;2022-10-16T18:21:30;16.02;;;6.60;;
24751;SDS011;27246;52.376;4.628;2022-10-16T18:26:33;28.98;;;9.80;;
24751;SDS011;27246;52.376;4.628;2022-10-16T18:31:35;16.58;;;6.88;;
24751;SDS011;27246;52.376;4.628;2022-10-16T18:36:42;12.02;;;5.68;;
24751;SDS011;27246;52.376;4.628;2022-10-16T18:41:44;17.23;;;6.00;;
24751;SDS011;27246;52.376;4.628;2022-10-16T18:46:47;14.63;;;5.10;;
24751;SDS011;27246;52.376;4.628;2022-10-16T18:51:50;18.08;;;6.28;;
24751;SDS011;27246;52.376;4.628;2022-10-16T18:56:58;15.20;;;6.65;;
24751;SDS011;27246;52.376;4.628;2022-10-16T19:01:59;11.80;;;5.22;;
24751;SDS011;27246;52.376;4.628;2022-10-16T19:07:01;12.40;;;5.05;;
24751;SDS011;27246;52.376;4.628;2022-10-16T19:12:03;14.98;;;6.03;;
24751;SDS011;27246;52.376;4.628;2022-10-16T19:17:05;18.25;;;7.53;;
24751;SDS011;27246;52.376;4.628;2022-10-16T19:22:07;12.20;;;6.32;;
24751;SDS011;27246;52.376;4.628;2022-10-16T19:27:14;17.52;;;6.22;;
24751;SDS011;27246;52.376;4.628;2022-10-16T19:32:16;12.88;;;4.00;;
24751;SDS011;27246;52.376;4.628;2022-10-16T19:37:18;15.52;;;5.40;;
24751;SDS011;27246;52.376;4.628;2022-10-16T19:42:26;11.23;;;4.32;;
24751;SDS011;27246;52.376;4.628;2022-10-16T19:47:28;12.30;;;4.43;;
24751;SDS011;27246;52.376;4.628;2022-10-16T19:52:29;9.13;;;4.40;;
24751;SDS011;27246;52.376;4.628;2022-10-16T19:57:32;11.73;;;3.97;;
24751;SDS011;27246;52.376;4.628;2022-10-16T20:02:36;10.20;;;4.20;;
24751;SDS011;27246;52.376;4.628;2022-10-16T20:07:38;10.38;;;4.22;;
24751;SDS011;27246;52.376;4.628;2022-10-16T20:12:41;10.20;;;4.35;;
24751;SDS011;27246;52.376;4.628;2022-10-16T20:17:43;8.27;;;3.42;;
24751;SDS011;27246;52.376;4.628;2022-10-16T20:22:45;9.00;;;3.42;;
24751;SDS011;27246;52.376;4.628;2022-10-16T20:27:47;8.07;;;3.50;;
24751;SDS011;27246;52.376;4.628;2022-10-16T20:32:50;11.43;;;4.93;;
24751;SDS011;27246;52.376;4.628;2022-10-16T20:37:52;10.40;;;4.53;;
24751;SDS011;27246;52.376;4.628;2022-10-16T20:42:53;13.73;;;4.50;;
24751;SDS011;27246;52.376;4.628;2022-10-16T20:47:55;10.30;;;4.30;;
24751;SDS011;27246;52.376;4.628;2022-10-16T20:52:57;12.15;;;4.78;;
24751;SDS011;27246;52.376;4.628;2022-10-16T20:58:00;12.27;;;4.68;;
24751;SDS011;27246;52.376;4.628;2022-10-16T21:03:01;12.75;;;4.85;;
24751;SDS011;27246;52.376;4.628;2022-10-16T21:08:03;13.48;;;4.22;;
24751;SDS011;27246;52.376;4.628;2022-10-16T21:13:05;7.70;;;4.60;;
24751;SDS011;27246;52.376;4.628;2022-10-16T21:18:06;9.00;;;4.03;;
24751;SDS011;27246;52.376;4.628;2022-10-16T21:23:09;8.10;;;3.42;;
24751;SDS011;27246;52.376;4.628;2022-10-16T21:28:12;10.95;;;3.78;;
24751;SDS011;27246;52.376;4.628;2022-10-16T21:33:13;9.68;;;4.10;;
24751;SDS011;27246;52.376;4.628;2022-10-16T21:38:15;9.27;;;3.60;;
24751;SDS011;27246;52.376;4.628;2022-10-16T21:43:17;8.20;;;3.25;;
24751;SDS011;27246;52.376;4.628;2022-10-16T21:48:18;7.66;;;3.68;;
24751;SDS011;27246;52.376;4.628;2022-10-16T21:53:20;11.55;;;4.25;;
24751;SDS011;27246;52.376;4.628;2022-10-16T21:58:23;6.60;;;5.13;;
24751;SDS011;27246;52.376;4.628;2022-10-16T22:03:24;8.73;;;4.50;;
24751;SDS011;27246;52.376;4.628;2022-10-16T22:08:26;15.85;;;4.90;;
24751;SDS011;27246;52.376;4.628;2022-10-16T22:13:28;9.85;;;4.50;;
24751;SDS011;27246;52.376;4.628;2022-10-16T22:18:29;8.43;;;4.22;;
24751;SDS011;27246;52.376;4.628;2022-10-16T22:23:32;7.75;;;4.35;;
24751;SDS011;27246;52.376;4.628;2022-10-16T22:28:34;6.15;;;3.70;;
24751;SDS011;27246;52.376;4.628;2022-10-16T22:33:36;9.23;;;4.47;;
24751;SDS011;27246;52.376;4.628;2022-10-16T22:38:38;7.22;;;4.45;;
24751;SDS011;27246;52.376;4.628;2022-10-16T22:43:41;9.43;;;4.35;;
24751;SDS011;27246;52.376;4.628;2022-10-16T22:48:45;8.25;;;4.85;;
24751;SDS011;27246;52.376;4.628;2022-10-16T22:53:47;7.10;;;4.07;;
24751;SDS011;27246;52.376;4.628;2022-10-16T22:58:49;9.73;;;4.45;;
24751;SDS011;27246;52.376;4.628;2022-10-16T23:03:51;12.43;;;4.80;;
24751;SDS011;27246;52.376;4.628;2022-10-16T23:08:54;11.63;;;4.28;;
24751;SDS011;27246;52.376;4.628;2022-10-16T23:13:57;7.20;;;4.90;;
24751;SDS011;27246;52.376;4.628;2022-10-16T23:18:59;7.65;;;4.50;;
24751;SDS011;27246;52.376;4.628;2022-10-16T23:24:01;8.15;;;4.50;;
24751;SDS011;27246;52.376;4.628;2022-10-16T23:29:02;5.82;;;4.57;;
24751;SDS011;27246;52.376;4.628;2022-10-16T23:34:04;10.88;;;5.45;;
24751;SDS011;27246;52.376;4.628;2022-10-16T23:39:06;9.07;;;4.97;;
24751;SDS011;27246;52.376;4.628;2022-10-16T23:44:08;8.10;;;4.43;;
24751;SDS011;27246;52.376;4.628;2022-10-16T23:49:09;8.13;;;4.43;;
24751;SDS011;27246;52.376;4.628;2022-10-16T23:54:11;10.35;;;4.20;;
24751;SDS011;27246;52.376;4.628;2022-10-16T23:59:13;4.80;;;4.05;;
